sensor_id;sensor_type;location;lat;lon;timestamp;P1;durP1;ratioP1;P2;durP2;ratioP2
21354;SDS011;10835;50.148;19.760;2023-09-19T00:00:38;6.75;;;4.95;;
21354;SDS011;10835;50.148;19.760;2023-09-19T00:03:09;7.97;;;5.80;;
21354;SDS011;10835;50.148;19.760;2023-09-19T00:05:39;8.60;;;5.53;;
21354;SDS011;10835;50.148;19.760;2023-09-19T00:08:12;13.85;;;6.28;;
21354;SDS011;10835;50.148;19.760;2023-09-19T00:10:43;8.38;;;5.85;;
21354;SDS011;10835;50.148;19.760;2023-09-19T00:13:11;9.30;;;5.18;;
21354;SDS011;10835;50.148;19.760;2023-09-19T00:15:43;6.90;;;5.43;;
21354;SDS011;10835;50.148;19.760;2023-09-19T00:18:16;6.72;;;5.15;;
21354;SDS011;10835;50.148;19.760;2023-09-19T00:20:45;12.70;;;6.25;;
21354;SDS011;10835;50.148;19.760;2023-09-19T00:23:16;8.27;;;5.57;;
21354;SDS011;10835;50.148;19.760;2023-09-19T00:25:48;6.90;;;5.38;;
21354;SDS011;10835;50.148;19.760;2023-09-19T00:28:17;7.40;;;5.53;;
21354;SDS011;10835;50.148;19.760;2023-09-19T00:30:47;10.05;;;5.93;;
21354;SDS011;10835;50.148;19.760;2023-09-19T00:33:18;8.05;;;5.32;;
21354;SDS011;10835;50.148;19.760;2023-09-19T00:35:47;8.35;;;6.10;;
21354;SDS011;10835;50.148;19.760;2023-09-19T00:38:15;8.80;;;6.15;;
21354;SDS011;10835;50.148;19.760;2023-09-19T00:40:49;11.85;;;5.93;;
21354;SDS011;10835;50.148;19.760;2023-09-19T00:43:18;10.75;;;6.32;;
21354;SDS011;10835;50.148;19.760;2023-09-19T00:45:49;7.93;;;5.68;;
21354;SDS011;10835;50.148;19.760;2023-09-19T00:48:19;10.18;;;5.60;;
21354;SDS011;10835;50.148;19.760;2023-09-19T00:50:49;7.47;;;5.60;;
21354;SDS011;10835;50.148;19.760;2023-09-19T00:53:21;9.30;;;5.95;;
21354;SDS011;10835;50.148;19.760;2023-09-19T00:55:54;8.90;;;6.55;;
21354;SDS011;10835;50.148;19.760;2023-09-19T00:58:23;10.20;;;5.93;;
21354;SDS011;10835;50.148;19.760;2023-09-19T01:00:52;9.65;;;5.85;;
21354;SDS011;10835;50.148;19.760;2023-09-19T01:03:22;7.72;;;5.20;;
21354;SDS011;10835;50.148;19.760;2023-09-19T01:05:51;9.05;;;5.60;;
21354;SDS011;10835;50.148;19.760;2023-09-19T01:08:20;7.55;;;5.10;;
21354;SDS011;10835;50.148;19.760;2023-09-19T01:10:51;8.27;;;5.13;;
21354;SDS011;10835;50.148;19.760;2023-09-19T01:13:26;8.95;;;5.75;;
21354;SDS011;10835;50.148;19.760;2023-09-19T01:16:03;8.02;;;5.55;;
21354;SDS011;10835;50.148;19.760;2023-09-19T01:18:40;10.93;;;5.55;;
21354;SDS011;10835;50.148;19.760;2023-09-19T01:21:18;14.20;;;5.50;;
21354;SDS011;10835;50.148;19.760;2023-09-19T01:24:07;10.10;;;6.35;;
21354;SDS011;10835;50.148;19.760;2023-09-19T01:26:56;9.45;;;5.93;;
21354;SDS011;10835;50.148;19.760;2023-09-19T01:29:46;7.20;;;5.15;;
21354;SDS011;10835;50.148;19.760;2023-09-19T01:32:18;7.15;;;5.13;;
21354;SDS011;10835;50.148;19.760;2023-09-19T01:34:51;9.25;;;6.10;;
21354;SDS011;10835;50.148;19.760;2023-09-19T01:37:23;7.05;;;5.03;;
21354;SDS011;10835;50.148;19.760;2023-09-19T01:39:53;8.88;;;6.13;;
21354;SDS011;10835;50.148;19.760;2023-09-19T01:42:27;8.52;;;5.50;;
21354;SDS011;10835;50.148;19.760;2023-09-19T01:45:03;8.57;;;5.38;;
21354;SDS011;10835;50.148;19.760;2023-09-19T01:47:42;10.80;;;6.68;;
21354;SDS011;10835;50.148;19.760;2023-09-19T01:50:20;9.02;;;6.00;;
21354;SDS011;10835;50.148;19.760;2023-09-19T01:52:59;10.45;;;6.75;;
21354;SDS011;10835;50.148;19.760;2023-09-19T01:55:44;9.43;;;6.75;;
21354;SDS011;10835;50.148;19.760;2023-09-19T01:58:17;10.90;;;6.85;;
21354;SDS011;10835;50.148;19.760;2023-09-19T02:00:52;13.40;;;6.13;;
21354;SDS011;10835;50.148;19.760;2023-09-19T02:03:23;14.43;;;7.00;;
21354;SDS011;10835;50.148;19.760;2023-09-19T02:05:54;9.93;;;6.88;;
21354;SDS011;10835;50.148;19.760;2023-09-19T02:08:22;9.07;;;6.30;;
21354;SDS011;10835;50.148;19.760;2023-09-19T02:10:51;11.43;;;7.22;;
21354;SDS011;10835;50.148;19.760;2023-09-19T02:13:20;13.07;;;7.20;;
21354;SDS011;10835;50.148;19.760;2023-09-19T02:15:51;10.63;;;7.07;;
21354;SDS011;10835;50.148;19.760;2023-09-19T02:18:20;13.52;;;7.38;;
21354;SDS011;10835;50.148;19.760;2023-09-19T02:20:49;12.35;;;8.38;;
21354;SDS011;10835;50.148;19.760;2023-09-19T02:23:20;10.85;;;6.97;;
21354;SDS011;10835;50.148;19.760;2023-09-19T02:25:52;12.73;;;7.82;;
21354;SDS011;10835;50.148;19.760;2023-09-19T02:28:21;15.57;;;7.50;;
21354;SDS011;10835;50.148;19.760;2023-09-19T02:30:50;12.25;;;6.97;;
21354;SDS011;10835;50.148;19.760;2023-09-19T02:33:18;11.82;;;6.40;;
21354;SDS011;10835;50.148;19.760;2023-09-19T02:35:53;10.25;;;7.47;;
21354;SDS011;10835;50.148;19.760;2023-09-19T02:38:24;11.65;;;7.45;;
21354;SDS011;10835;50.148;19.760;2023-09-19T02:40:52;13.18;;;7.38;;
21354;SDS011;10835;50.148;19.760;2023-09-19T02:43:21;10.93;;;7.63;;
21354;SDS011;10835;50.148;19.760;2023-09-19T02:45:50;10.52;;;7.15;;
21354;SDS011;10835;50.148;19.760;2023-09-19T02:48:20;15.32;;;8.60;;
21354;SDS011;10835;50.148;19.760;2023-09-19T02:50:49;11.57;;;7.55;;
21354;SDS011;10835;50.148;19.760;2023-09-19T02:53:19;12.50;;;8.05;;
21354;SDS011;10835;50.148;19.760;2023-09-19T02:55:47;11.65;;;7.88;;
21354;SDS011;10835;50.148;19.760;2023-09-19T02:58:16;14.75;;;7.80;;
21354;SDS011;10835;50.148;19.760;2023-09-19T03:00:46;12.57;;;8.02;;
21354;SDS011;10835;50.148;19.760;2023-09-19T03:03:17;10.98;;;8.00;;
21354;SDS011;10835;50.148;19.760;2023-09-19T03:05:46;11.48;;;8.05;;
21354;SDS011;10835;50.148;19.760;2023-09-19T03:08:19;11.90;;;7.00;;
21354;SDS011;10835;50.148;19.760;2023-09-19T03:10:48;10.23;;;7.25;;
21354;SDS011;10835;50.148;19.760;2023-09-19T03:13:17;12.68;;;6.88;;
21354;SDS011;10835;50.148;19.760;2023-09-19T03:15:47;12.68;;;7.28;;
21354;SDS011;10835;50.148;19.760;2023-09-19T03:18:21;8.82;;;6.65;;
21354;SDS011;10835;50.148;19.760;2023-09-19T03:20:52;13.13;;;7.72;;
21354;SDS011;10835;50.148;19.760;2023-09-19T03:23:23;9.98;;;6.82;;
21354;SDS011;10835;50.148;19.760;2023-09-19T03:25:52;8.88;;;6.38;;
21354;SDS011;10835;50.148;19.760;2023-09-19T03:28:21;8.27;;;6.50;;
21354;SDS011;10835;50.148;19.760;2023-09-19T03:30:57;6.88;;;6.00;;
21354;SDS011;10835;50.148;19.760;2023-09-19T03:33:28;11.15;;;6.68;;
21354;SDS011;10835;50.148;19.760;2023-09-19T03:35:59;9.27;;;6.20;;
21354;SDS011;10835;50.148;19.760;2023-09-19T03:38:32;7.90;;;5.47;;
21354;SDS011;10835;50.148;19.760;2023-09-19T03:41:01;13.77;;;7.18;;
21354;SDS011;10835;50.148;19.760;2023-09-19T03:43:33;7.43;;;6.32;;
21354;SDS011;10835;50.148;19.760;2023-09-19T03:46:03;14.02;;;7.25;;
21354;SDS011;10835;50.148;19.760;2023-09-19T03:48:33;8.88;;;6.25;;
21354;SDS011;10835;50.148;19.760;2023-09-19T03:51:02;11.98;;;7.35;;
21354;SDS011;10835;50.148;19.760;2023-09-19T03:53:32;8.52;;;6.72;;
21354;SDS011;10835;50.148;19.760;2023-09-19T03:56:01;11.57;;;7.53;;
21354;SDS011;10835;50.148;19.760;2023-09-19T03:58:32;14.13;;;6.90;;
21354;SDS011;10835;50.148;19.760;2023-09-19T04:01:04;10.75;;;7.00;;
21354;SDS011;10835;50.148;19.760;2023-09-19T04:03:34;9.95;;;6.63;;
21354;SDS011;10835;50.148;19.760;2023-09-19T04:06:13;10.15;;;6.53;;
21354;SDS011;10835;50.148;19.760;2023-09-19T04:08:46;8.30;;;6.13;;
21354;SDS011;10835;50.148;19.760;2023-09-19T04:11:15;7.72;;;6.50;;
21354;SDS011;10835;50.148;19.760;2023-09-19T04:13:45;10.80;;;6.47;;
21354;SDS011;10835;50.148;19.760;2023-09-19T04:16:14;8.93;;;6.47;;
21354;SDS011;10835;50.148;19.760;2023-09-19T04:18:43;8.50;;;6.78;;
21354;SDS011;10835;50.148;19.760;2023-09-19T04:21:12;10.50;;;8.13;;
21354;SDS011;10835;50.148;19.760;2023-09-19T04:23:40;12.70;;;8.30;;
21354;SDS011;10835;50.148;19.760;2023-09-19T04:26:10;10.63;;;8.00;;
21354;SDS011;10835;50.148;19.760;2023-09-19T04:28:39;9.85;;;7.70;;
21354;SDS011;10835;50.148;19.760;2023-09-19T04:31:08;10.18;;;7.25;;
21354;SDS011;10835;50.148;19.760;2023-09-19T04:33:37;10.77;;;7.95;;
21354;SDS011;10835;50.148;19.760;2023-09-19T04:36:06;12.57;;;9.35;;
21354;SDS011;10835;50.148;19.760;2023-09-19T04:38:54;12.27;;;8.70;;
21354;SDS011;10835;50.148;19.760;2023-09-19T04:41:24;13.18;;;8.35;;
21354;SDS011;10835;50.148;19.760;2023-09-19T04:43:53;12.75;;;8.63;;
21354;SDS011;10835;50.148;19.760;2023-09-19T04:46:22;11.65;;;8.40;;
21354;SDS011;10835;50.148;19.760;2023-09-19T04:48:51;11.10;;;8.82;;
21354;SDS011;10835;50.148;19.760;2023-09-19T04:51:20;8.75;;;6.68;;
21354;SDS011;10835;50.148;19.760;2023-09-19T04:53:48;8.13;;;6.32;;
21354;SDS011;10835;50.148;19.760;2023-09-19T04:56:17;10.85;;;8.30;;
21354;SDS011;10835;50.148;19.760;2023-09-19T04:58:49;10.35;;;7.60;;
21354;SDS011;10835;50.148;19.760;2023-09-19T05:01:17;9.77;;;7.68;;
21354;SDS011;10835;50.148;19.760;2023-09-19T05:03:45;8.50;;;7.57;;
21354;SDS011;10835;50.148;19.760;2023-09-19T05:06:18;9.73;;;7.47;;
21354;SDS011;10835;50.148;19.760;2023-09-19T05:08:48;8.82;;;7.03;;
21354;SDS011;10835;50.148;19.760;2023-09-19T05:11:18;10.75;;;7.38;;
21354;SDS011;10835;50.148;19.760;2023-09-19T05:13:49;9.40;;;7.30;;
21354;SDS011;10835;50.148;19.760;2023-09-19T05:16:19;11.02;;;7.97;;
21354;SDS011;10835;50.148;19.760;2023-09-19T05:18:49;10.75;;;8.00;;
21354;SDS011;10835;50.148;19.760;2023-09-19T05:21:17;10.38;;;7.22;;
21354;SDS011;10835;50.148;19.760;2023-09-19T05:23:45;12.60;;;9.82;;
21354;SDS011;10835;50.148;19.760;2023-09-19T05:26:14;15.80;;;9.50;;
21354;SDS011;10835;50.148;19.760;2023-09-19T05:28:43;20.58;;;10.07;;
21354;SDS011;10835;50.148;19.760;2023-09-19T05:31:13;14.02;;;10.13;;
21354;SDS011;10835;50.148;19.760;2023-09-19T05:33:42;12.57;;;8.45;;
21354;SDS011;10835;50.148;19.760;2023-09-19T05:36:10;13.32;;;7.90;;
21354;SDS011;10835;50.148;19.760;2023-09-19T05:38:39;8.48;;;6.05;;
21354;SDS011;10835;50.148;19.760;2023-09-19T05:41:08;9.35;;;6.18;;
21354;SDS011;10835;50.148;19.760;2023-09-19T05:43:40;6.68;;;5.50;;
21354;SDS011;10835;50.148;19.760;2023-09-19T05:46:10;8.25;;;6.32;;
21354;SDS011;10835;50.148;19.760;2023-09-19T05:48:42;8.35;;;5.57;;
21354;SDS011;10835;50.148;19.760;2023-09-19T05:51:11;6.85;;;5.63;;
21354;SDS011;10835;50.148;19.760;2023-09-19T05:53:39;7.75;;;5.38;;
21354;SDS011;10835;50.148;19.760;2023-09-19T05:56:10;8.27;;;6.15;;
21354;SDS011;10835;50.148;19.760;2023-09-19T05:58:40;8.23;;;5.82;;
21354;SDS011;10835;50.148;19.760;2023-09-19T06:01:12;6.20;;;5.18;;
21354;SDS011;10835;50.148;19.760;2023-09-19T06:03:44;8.00;;;6.43;;
21354;SDS011;10835;50.148;19.760;2023-09-19T06:06:13;9.02;;;6.40;;
21354;SDS011;10835;50.148;19.760;2023-09-19T06:08:44;8.65;;;6.57;;
21354;SDS011;10835;50.148;19.760;2023-09-19T06:11:12;9.88;;;6.03;;
21354;SDS011;10835;50.148;19.760;2023-09-19T06:13:40;7.45;;;5.97;;
21354;SDS011;10835;50.148;19.760;2023-09-19T06:16:09;7.82;;;5.80;;
21354;SDS011;10835;50.148;19.760;2023-09-19T06:18:39;6.50;;;5.70;;
21354;SDS011;10835;50.148;19.760;2023-09-19T06:21:07;6.90;;;6.00;;
21354;SDS011;10835;50.148;19.760;2023-09-19T06:23:39;7.38;;;6.32;;
21354;SDS011;10835;50.148;19.760;2023-09-19T06:26:08;7.15;;;5.85;;
21354;SDS011;10835;50.148;19.760;2023-09-19T06:28:36;6.65;;;5.65;;
21354;SDS011;10835;50.148;19.760;2023-09-19T06:31:05;5.78;;;5.07;;
21354;SDS011;10835;50.148;19.760;2023-09-19T06:33:36;7.10;;;5.55;;
21354;SDS011;10835;50.148;19.760;2023-09-19T06:36:06;8.52;;;5.72;;
21354;SDS011;10835;50.148;19.760;2023-09-19T06:38:35;8.15;;;5.72;;
21354;SDS011;10835;50.148;19.760;2023-09-19T06:41:05;10.13;;;7.13;;
21354;SDS011;10835;50.148;19.760;2023-09-19T06:43:35;11.20;;;8.05;;
21354;SDS011;10835;50.148;19.760;2023-09-19T06:46:04;9.85;;;7.53;;
21354;SDS011;10835;50.148;19.760;2023-09-19T06:48:34;9.38;;;7.30;;
21354;SDS011;10835;50.148;19.760;2023-09-19T06:51:04;8.32;;;6.85;;
21354;SDS011;10835;50.148;19.760;2023-09-19T06:53:32;7.82;;;7.03;;
21354;SDS011;10835;50.148;19.760;2023-09-19T06:56:02;11.68;;;7.60;;
21354;SDS011;10835;50.148;19.760;2023-09-19T06:58:32;11.23;;;7.78;;
21354;SDS011;10835;50.148;19.760;2023-09-19T07:01:01;8.25;;;7.15;;
21354;SDS011;10835;50.148;19.760;2023-09-19T07:03:30;9.68;;;6.65;;
21354;SDS011;10835;50.148;19.760;2023-09-19T07:06:00;7.90;;;6.32;;
21354;SDS011;10835;50.148;19.760;2023-09-19T07:08:32;8.68;;;6.53;;
21354;SDS011;10835;50.148;19.760;2023-09-19T07:11:01;6.97;;;5.70;;
21354;SDS011;10835;50.148;19.760;2023-09-19T07:13:33;7.70;;;5.30;;
21354;SDS011;10835;50.148;19.760;2023-09-19T07:16:08;7.40;;;5.25;;
21354;SDS011;10835;50.148;19.760;2023-09-19T07:18:40;5.63;;;4.90;;
21354;SDS011;10835;50.148;19.760;2023-09-19T07:21:13;6.13;;;4.70;;
21354;SDS011;10835;50.148;19.760;2023-09-19T07:23:44;5.63;;;4.88;;
21354;SDS011;10835;50.148;19.760;2023-09-19T07:26:12;6.68;;;4.80;;
21354;SDS011;10835;50.148;19.760;2023-09-19T07:28:41;7.43;;;5.47;;
21354;SDS011;10835;50.148;19.760;2023-09-19T07:31:09;6.75;;;5.28;;
21354;SDS011;10835;50.148;19.760;2023-09-19T07:33:41;5.55;;;4.85;;
21354;SDS011;10835;50.148;19.760;2023-09-19T07:36:11;6.03;;;5.43;;
21354;SDS011;10835;50.148;19.760;2023-09-19T07:38:40;7.47;;;5.30;;
21354;SDS011;10835;50.148;19.760;2023-09-19T07:41:10;6.43;;;5.65;;
21354;SDS011;10835;50.148;19.760;2023-09-19T07:43:39;5.78;;;5.13;;
21354;SDS011;10835;50.148;19.760;2023-09-19T07:46:09;7.20;;;6.22;;
21354;SDS011;10835;50.148;19.760;2023-09-19T07:48:38;6.97;;;6.10;;
21354;SDS011;10835;50.148;19.760;2023-09-19T07:51:08;6.85;;;6.15;;
21354;SDS011;10835;50.148;19.760;2023-09-19T07:53:37;6.65;;;5.90;;
21354;SDS011;10835;50.148;19.760;2023-09-19T07:56:07;7.15;;;6.40;;
21354;SDS011;10835;50.148;19.760;2023-09-19T07:58:40;9.85;;;5.40;;
21354;SDS011;10835;50.148;19.760;2023-09-19T08:01:10;7.20;;;6.03;;
21354;SDS011;10835;50.148;19.760;2023-09-19T08:03:40;6.82;;;6.05;;
21354;SDS011;10835;50.148;19.760;2023-09-19T08:06:12;9.27;;;7.55;;
21354;SDS011;10835;50.148;19.760;2023-09-19T08:08:41;9.05;;;6.93;;
21354;SDS011;10835;50.148;19.760;2023-09-19T08:11:10;11.02;;;7.05;;
21354;SDS011;10835;50.148;19.760;2023-09-19T08:13:42;10.38;;;8.05;;
21354;SDS011;10835;50.148;19.760;2023-09-19T08:16:12;12.45;;;9.20;;
21354;SDS011;10835;50.148;19.760;2023-09-19T08:18:41;10.38;;;7.57;;
21354;SDS011;10835;50.148;19.760;2023-09-19T08:21:11;10.88;;;8.48;;
21354;SDS011;10835;50.148;19.760;2023-09-19T08:23:43;9.93;;;7.60;;
21354;SDS011;10835;50.148;19.760;2023-09-19T08:26:12;11.25;;;6.97;;
21354;SDS011;10835;50.148;19.760;2023-09-19T08:28:42;8.68;;;6.88;;
21354;SDS011;10835;50.148;19.760;2023-09-19T08:31:10;9.68;;;7.00;;
21354;SDS011;10835;50.148;19.760;2023-09-19T08:33:39;7.97;;;5.68;;
21354;SDS011;10835;50.148;19.760;2023-09-19T08:36:09;11.85;;;5.93;;
21354;SDS011;10835;50.148;19.760;2023-09-19T08:38:38;8.00;;;6.40;;
21354;SDS011;10835;50.148;19.760;2023-09-19T08:41:07;9.40;;;6.10;;
21354;SDS011;10835;50.148;19.760;2023-09-19T08:43:36;7.22;;;5.30;;
21354;SDS011;10835;50.148;19.760;2023-09-19T08:46:09;10.65;;;5.53;;
21354;SDS011;10835;50.148;19.760;2023-09-19T08:48:42;7.55;;;5.78;;
21354;SDS011;10835;50.148;19.760;2023-09-19T08:51:18;10.90;;;7.53;;
21354;SDS011;10835;50.148;19.760;2023-09-19T08:53:52;10.40;;;8.07;;
21354;SDS011;10835;50.148;19.760;2023-09-19T08:56:31;11.88;;;7.75;;
21354;SDS011;10835;50.148;19.760;2023-09-19T08:59:02;9.75;;;7.03;;
21354;SDS011;10835;50.148;19.760;2023-09-19T09:01:35;13.10;;;8.63;;
21354;SDS011;10835;50.148;19.760;2023-09-19T09:04:10;13.18;;;9.63;;
21354;SDS011;10835;50.148;19.760;2023-09-19T09:06:40;16.05;;;9.95;;
21354;SDS011;10835;50.148;19.760;2023-09-19T09:09:10;12.32;;;8.48;;
21354;SDS011;10835;50.148;19.760;2023-09-19T09:11:39;16.80;;;10.75;;
21354;SDS011;10835;50.148;19.760;2023-09-19T09:14:13;19.20;;;11.68;;
21354;SDS011;10835;50.148;19.760;2023-09-19T09:16:43;16.65;;;10.27;;
21354;SDS011;10835;50.148;19.760;2023-09-19T09:19:12;15.40;;;9.52;;
21354;SDS011;10835;50.148;19.760;2023-09-19T09:21:40;15.20;;;10.27;;
21354;SDS011;10835;50.148;19.760;2023-09-19T09:24:27;15.43;;;10.15;;
21354;SDS011;10835;50.148;19.760;2023-09-19T09:26:59;13.98;;;8.95;;
21354;SDS011;10835;50.148;19.760;2023-09-19T09:29:39;16.42;;;10.05;;
21354;SDS011;10835;50.148;19.760;2023-09-19T09:32:21;15.05;;;8.68;;
21354;SDS011;10835;50.148;19.760;2023-09-19T09:34:53;11.25;;;7.60;;
21354;SDS011;10835;50.148;19.760;2023-09-19T09:37:27;11.57;;;7.25;;
21354;SDS011;10835;50.148;19.760;2023-09-19T09:39:58;8.48;;;6.55;;
21354;SDS011;10835;50.148;19.760;2023-09-19T09:42:46;11.13;;;6.75;;
21354;SDS011;10835;50.148;19.760;2023-09-19T09:45:19;9.65;;;5.60;;
21354;SDS011;10835;50.148;19.760;2023-09-19T09:47:56;10.63;;;6.97;;
21354;SDS011;10835;50.148;19.760;2023-09-19T09:50:25;6.70;;;4.97;;
21354;SDS011;10835;50.148;19.760;2023-09-19T09:53:05;11.05;;;5.07;;
21354;SDS011;10835;50.148;19.760;2023-09-19T09:55:57;9.45;;;4.93;;
21354;SDS011;10835;50.148;19.760;2023-09-19T09:58:33;7.03;;;4.53;;
21354;SDS011;10835;50.148;19.760;2023-09-19T10:01:03;8.70;;;4.72;;
21354;SDS011;10835;50.148;19.760;2023-09-19T10:03:39;6.78;;;4.75;;
21354;SDS011;10835;50.148;19.760;2023-09-19T10:06:11;7.05;;;4.90;;
21354;SDS011;10835;50.148;19.760;2023-09-19T10:09:02;7.63;;;4.55;;
21354;SDS011;10835;50.148;19.760;2023-09-19T10:11:39;8.48;;;4.97;;
21354;SDS011;10835;50.148;19.760;2023-09-19T10:14:12;7.80;;;4.80;;
21354;SDS011;10835;50.148;19.760;2023-09-19T10:16:45;5.75;;;4.38;;
21354;SDS011;10835;50.148;19.760;2023-09-19T10:19:20;6.82;;;3.03;;
21354;SDS011;10835;50.148;19.760;2023-09-19T10:21:53;7.15;;;3.92;;
21354;SDS011;10835;50.148;19.760;2023-09-19T10:24:23;4.28;;;3.38;;
21354;SDS011;10835;50.148;19.760;2023-09-19T10:26:54;5.32;;;3.70;;
21354;SDS011;10835;50.148;19.760;2023-09-19T10:29:24;5.55;;;3.58;;
21354;SDS011;10835;50.148;19.760;2023-09-19T10:31:56;6.35;;;4.10;;
21354;SDS011;10835;50.148;19.760;2023-09-19T10:34:30;4.80;;;4.25;;
21354;SDS011;10835;50.148;19.760;2023-09-19T10:36:59;5.45;;;4.22;;
21354;SDS011;10835;50.148;19.760;2023-09-19T10:39:32;6.97;;;4.20;;
21354;SDS011;10835;50.148;19.760;2023-09-19T10:42:02;6.05;;;4.35;;
21354;SDS011;10835;50.148;19.760;2023-09-19T10:44:33;6.00;;;4.40;;
21354;SDS011;10835;50.148;19.760;2023-09-19T10:47:02;4.68;;;4.05;;
21354;SDS011;10835;50.148;19.760;2023-09-19T10:49:35;9.50;;;4.40;;
21354;SDS011;10835;50.148;19.760;2023-09-19T10:52:10;5.95;;;4.35;;
21354;SDS011;10835;50.148;19.760;2023-09-19T10:54:45;8.80;;;4.90;;
21354;SDS011;10835;50.148;19.760;2023-09-19T10:57:19;7.05;;;5.20;;
21354;SDS011;10835;50.148;19.760;2023-09-19T11:06:01;6.55;;;4.85;;
21354;SDS011;10835;50.148;19.760;2023-09-19T11:08:52;6.18;;;4.05;;
21354;SDS011;10835;50.148;19.760;2023-09-19T11:11:38;8.18;;;5.88;;
21354;SDS011;10835;50.148;19.760;2023-09-19T11:14:28;7.05;;;5.28;;
21354;SDS011;10835;50.148;19.760;2023-09-19T11:20:23;6.97;;;4.85;;
21354;SDS011;10835;50.148;19.760;2023-09-19T11:25:54;9.15;;;5.50;;
21354;SDS011;10835;50.148;19.760;2023-09-19T11:28:35;7.38;;;5.70;;
21354;SDS011;10835;50.148;19.760;2023-09-19T11:40:46;10.90;;;5.32;;
21354;SDS011;10835;50.148;19.760;2023-09-19T11:43:28;5.78;;;4.55;;
21354;SDS011;10835;50.148;19.760;2023-09-19T11:46:01;6.35;;;4.85;;
21354;SDS011;10835;50.148;19.760;2023-09-19T11:48:34;7.97;;;4.90;;
21354;SDS011;10835;50.148;19.760;2023-09-19T11:51:11;8.90;;;5.22;;
21354;SDS011;10835;50.148;19.760;2023-09-19T11:53:46;8.68;;;5.00;;
21354;SDS011;10835;50.148;19.760;2023-09-19T11:56:18;5.40;;;4.00;;
21354;SDS011;10835;50.148;19.760;2023-09-19T11:58:49;12.00;;;4.55;;
21354;SDS011;10835;50.148;19.760;2023-09-19T12:01:24;6.57;;;4.70;;
21354;SDS011;10835;50.148;19.760;2023-09-19T12:03:57;4.88;;;4.35;;
21354;SDS011;10835;50.148;19.760;2023-09-19T12:06:27;5.57;;;3.88;;
21354;SDS011;10835;50.148;19.760;2023-09-19T12:08:58;9.30;;;4.40;;
21354;SDS011;10835;50.148;19.760;2023-09-19T12:11:29;5.43;;;4.35;;
21354;SDS011;10835;50.148;19.760;2023-09-19T12:14:01;5.95;;;4.40;;
21354;SDS011;10835;50.148;19.760;2023-09-19T12:16:31;5.85;;;3.92;;
21354;SDS011;10835;50.148;19.760;2023-09-19T12:21:59;8.02;;;4.20;;
21354;SDS011;10835;50.148;19.760;2023-09-19T12:24:31;7.25;;;4.20;;
21354;SDS011;10835;50.148;19.760;2023-09-19T12:27:05;5.95;;;4.38;;
21354;SDS011;10835;50.148;19.760;2023-09-19T12:29:45;7.80;;;4.72;;
21354;SDS011;10835;50.148;19.760;2023-09-19T12:32:16;8.82;;;4.90;;
21354;SDS011;10835;50.148;19.760;2023-09-19T12:34:51;7.45;;;4.80;;
21354;SDS011;10835;50.148;19.760;2023-09-19T12:37:21;9.75;;;4.50;;
21354;SDS011;10835;50.148;19.760;2023-09-19T12:40:03;8.85;;;4.97;;
21354;SDS011;10835;50.148;19.760;2023-09-19T12:42:44;6.68;;;4.35;;
21354;SDS011;10835;50.148;19.760;2023-09-19T12:45:14;4.78;;;3.90;;
21354;SDS011;10835;50.148;19.760;2023-09-19T12:51:06;6.47;;;4.43;;
21354;SDS011;10835;50.148;19.760;2023-09-19T12:53:37;5.97;;;4.15;;
21354;SDS011;10835;50.148;19.760;2023-09-19T12:56:12;6.63;;;3.92;;
21354;SDS011;10835;50.148;19.760;2023-09-19T12:58:50;6.68;;;3.95;;
21354;SDS011;10835;50.148;19.760;2023-09-19T13:01:21;6.45;;;3.85;;
21354;SDS011;10835;50.148;19.760;2023-09-19T13:04:12;6.82;;;3.90;;
21354;SDS011;10835;50.148;19.760;2023-09-19T13:06:45;9.57;;;4.30;;
21354;SDS011;10835;50.148;19.760;2023-09-19T13:09:15;5.07;;;3.20;;
21354;SDS011;10835;50.148;19.760;2023-09-19T13:11:44;5.63;;;3.35;;
21354;SDS011;10835;50.148;19.760;2023-09-19T13:14:19;5.78;;;4.00;;
21354;SDS011;10835;50.148;19.760;2023-09-19T13:16:57;8.55;;;4.40;;
21354;SDS011;10835;50.148;19.760;2023-09-19T13:19:37;3.13;;;2.83;;
21354;SDS011;10835;50.148;19.760;2023-09-19T13:25:13;4.75;;;3.47;;
21354;SDS011;10835;50.148;19.760;2023-09-19T13:27:46;6.88;;;4.55;;
21354;SDS011;10835;50.148;19.760;2023-09-19T13:30:19;5.40;;;4.45;;
21354;SDS011;10835;50.148;19.760;2023-09-19T13:32:48;6.93;;;5.75;;
21354;SDS011;10835;50.148;19.760;2023-09-19T13:35:17;6.00;;;3.53;;
21354;SDS011;10835;50.148;19.760;2023-09-19T13:37:46;6.95;;;4.60;;
21354;SDS011;10835;50.148;19.760;2023-09-19T13:40:18;9.13;;;4.50;;
21354;SDS011;10835;50.148;19.760;2023-09-19T13:42:47;5.38;;;4.47;;
21354;SDS011;10835;50.148;19.760;2023-09-19T13:45:15;6.10;;;3.75;;
21354;SDS011;10835;50.148;19.760;2023-09-19T13:47:49;5.10;;;3.78;;
21354;SDS011;10835;50.148;19.760;2023-09-19T13:50:18;5.90;;;4.28;;
21354;SDS011;10835;50.148;19.760;2023-09-19T13:52:50;10.13;;;5.22;;
21354;SDS011;10835;50.148;19.760;2023-09-19T13:55:19;7.22;;;4.60;;
21354;SDS011;10835;50.148;19.760;2023-09-19T13:57:48;7.63;;;5.00;;
21354;SDS011;10835;50.148;19.760;2023-09-19T14:00:19;8.40;;;4.65;;
21354;SDS011;10835;50.148;19.760;2023-09-19T14:02:50;7.07;;;3.28;;
21354;SDS011;10835;50.148;19.760;2023-09-19T14:05:19;7.07;;;4.60;;
21354;SDS011;10835;50.148;19.760;2023-09-19T14:07:48;7.43;;;5.00;;
21354;SDS011;10835;50.148;19.760;2023-09-19T14:10:17;6.97;;;4.45;;
21354;SDS011;10835;50.148;19.760;2023-09-19T14:12:45;6.32;;;4.30;;
21354;SDS011;10835;50.148;19.760;2023-09-19T14:15:17;6.20;;;3.47;;
21354;SDS011;10835;50.148;19.760;2023-09-19T14:17:46;4.28;;;3.33;;
21354;SDS011;10835;50.148;19.760;2023-09-19T14:20:15;6.57;;;3.65;;
21354;SDS011;10835;50.148;19.760;2023-09-19T14:22:44;7.32;;;4.65;;
21354;SDS011;10835;50.148;19.760;2023-09-19T14:25:13;6.20;;;3.63;;
21354;SDS011;10835;50.148;19.760;2023-09-19T14:27:41;6.50;;;4.15;;
21354;SDS011;10835;50.148;19.760;2023-09-19T14:30:12;5.82;;;3.67;;
21354;SDS011;10835;50.148;19.760;2023-09-19T14:32:41;5.50;;;4.45;;
21354;SDS011;10835;50.148;19.760;2023-09-19T14:35:09;5.57;;;4.90;;
21354;SDS011;10835;50.148;19.760;2023-09-19T14:37:42;9.38;;;5.15;;
21354;SDS011;10835;50.148;19.760;2023-09-19T14:40:12;7.40;;;5.45;;
21354;SDS011;10835;50.148;19.760;2023-09-19T14:42:42;12.05;;;4.80;;
21354;SDS011;10835;50.148;19.760;2023-09-19T14:45:18;6.32;;;5.03;;
21354;SDS011;10835;50.148;19.760;2023-09-19T14:47:48;6.88;;;4.85;;
21354;SDS011;10835;50.148;19.760;2023-09-19T14:50:20;8.07;;;4.55;;
21354;SDS011;10835;50.148;19.760;2023-09-19T14:52:51;9.38;;;5.00;;
21354;SDS011;10835;50.148;19.760;2023-09-19T14:55:20;6.10;;;5.10;;
21354;SDS011;10835;50.148;19.760;2023-09-19T14:57:49;5.80;;;4.20;;
21354;SDS011;10835;50.148;19.760;2023-09-19T15:00:19;6.00;;;4.38;;
21354;SDS011;10835;50.148;19.760;2023-09-19T15:02:50;5.72;;;4.40;;
21354;SDS011;10835;50.148;19.760;2023-09-19T15:05:19;6.03;;;4.05;;
21354;SDS011;10835;50.148;19.760;2023-09-19T15:07:51;6.90;;;4.85;;
21354;SDS011;10835;50.148;19.760;2023-09-19T15:10:19;5.10;;;4.38;;
21354;SDS011;10835;50.148;19.760;2023-09-19T15:12:48;5.97;;;3.80;;
21354;SDS011;10835;50.148;19.760;2023-09-19T15:15:17;8.77;;;4.43;;
21354;SDS011;10835;50.148;19.760;2023-09-19T15:17:45;5.28;;;3.58;;
21354;SDS011;10835;50.148;19.760;2023-09-19T15:20:14;6.05;;;3.58;;
21354;SDS011;10835;50.148;19.760;2023-09-19T15:22:44;3.97;;;3.10;;
21354;SDS011;10835;50.148;19.760;2023-09-19T15:25:14;6.82;;;3.22;;
21354;SDS011;10835;50.148;19.760;2023-09-19T15:27:42;5.50;;;3.35;;